createdAt,value
2018-05-18T00:02:11.795Z,13.00
2018-05-18T00:04:38.118Z,13.00
2018-05-18T00:07:04.482Z,13.00
2018-05-18T00:09:31.546Z,13.10
2018-05-18T00:11:57.879Z,13.00
2018-05-18T00:14:24.227Z,13.10
2018-05-18T00:16:50.586Z,12.90
2018-05-18T00:19:16.905Z,12.80
2018-05-18T00:21:43.264Z,12.90
2018-05-18T00:24:10.339Z,12.90
2018-05-18T00:26:36.712Z,12.80
2018-05-18T00:29:03.022Z,13.00
2018-05-18T00:31:29.339Z,13.10
2018-05-18T00:33:55.677Z,13.00
2018-05-18T00:36:21.998Z,12.90
2018-05-18T00:38:48.992Z,12.90
2018-05-18T00:41:15.345Z,12.80
2018-05-18T00:43:42.434Z,12.80
2018-05-18T00:46:08.757Z,12.70
2018-05-18T00:48:35.096Z,12.80
2018-05-18T00:51:01.436Z,12.70
2018-05-18T00:53:27.782Z,12.70
2018-05-18T00:55:54.122Z,12.80
2018-05-18T00:58:20.471Z,12.70
2018-05-18T01:00:46.799Z,12.80
2018-05-18T01:03:13.918Z,12.80
2018-05-18T01:05:40.246Z,12.80
2018-05-18T01:08:07.328Z,12.70
2018-05-18T01:10:35.050Z,12.70
2018-05-18T01:13:01.409Z,12.70
2018-05-18T01:15:28.481Z,12.70
2018-05-18T01:17:54.847Z,12.70
2018-05-18T01:20:21.212Z,12.70
2018-05-18T01:22:48.379Z,12.80
2018-05-18T01:25:14.731Z,12.70
2018-05-18T01:27:41.104Z,12.90
2018-05-18T01:30:07.439Z,12.70
2018-05-18T01:32:34.555Z,12.90
2018-05-18T01:35:00.871Z,12.80
2018-05-18T01:37:27.230Z,12.90
2018-05-18T01:39:53.559Z,12.80
2018-05-18T01:42:19.897Z,12.90
2018-05-18T01:44:46.247Z,12.80
2018-05-18T01:47:12.569Z,12.80
2018-05-18T01:49:38.932Z,12.80
2018-05-18T01:52:05.992Z,12.80
2018-05-18T01:54:33.086Z,13.00
2018-05-18T01:56:59.394Z,12.90
2018-05-18T01:59:25.743Z,12.90
2018-05-18T02:01:52.079Z,12.70
2018-05-18T02:04:18.445Z,13.00
2018-05-18T02:06:44.754Z,13.00
2018-05-18T02:09:11.093Z,13.00
2018-05-18T02:11:37.413Z,13.00
2018-05-18T02:14:03.748Z,12.90
2018-05-18T02:16:30.066Z,12.90
2018-05-18T02:18:56.430Z,12.90
2018-05-18T02:21:23.482Z,13.00
2018-05-18T02:23:49.820Z,12.90
2018-05-18T02:26:16.146Z,13.00
2018-05-18T02:28:43.254Z,12.90
2018-05-18T02:31:09.583Z,12.90
2018-05-18T02:33:35.926Z,12.90
2018-05-18T02:36:02.273Z,13.00
2018-05-18T02:38:29.393Z,12.70
2018-05-18T02:40:55.734Z,12.70
2018-05-18T02:43:22.104Z,12.80
2018-05-18T02:45:48.433Z,12.60
2018-05-18T02:48:14.810Z,12.70
2018-05-18T02:50:41.144Z,12.60
2018-05-18T02:53:07.487Z,12.50
2018-05-18T02:55:33.809Z,12.50
2018-05-18T02:58:00.156Z,12.40
2018-05-18T03:00:26.515Z,12.50
2018-05-18T03:02:52.874Z,12.60
2018-05-18T03:05:19.235Z,12.60
2018-05-18T03:07:45.583Z,12.60
2018-05-18T03:10:11.990Z,12.50
2018-05-18T03:12:38.316Z,12.40
2018-05-18T03:15:04.729Z,12.30
2018-05-18T03:17:31.095Z,12.40
2018-05-18T03:19:57.478Z,12.40
2018-05-18T03:22:23.807Z,12.20
2018-05-18T03:24:50.180Z,12.10
2018-05-18T03:27:16.609Z,12.40
2018-05-18T03:29:42.965Z,12.30
2018-05-18T03:32:10.041Z,12.20
2018-05-18T03:34:36.395Z,12.10
2018-05-18T03:37:02.850Z,12.00
2018-05-18T03:39:30.022Z,12.00
2018-05-18T03:41:57.117Z,12.20
2018-05-18T03:44:23.463Z,12.20
2018-05-18T03:46:49.807Z,12.30
2018-05-18T03:49:16.797Z,12.30
2018-05-18T03:51:44.007Z,12.40
2018-05-18T03:54:10.366Z,12.30
2018-05-18T03:56:37.441Z,12.50
2018-05-18T03:59:03.802Z,12.40
2018-05-18T04:01:42.366Z,12.50
2018-05-18T04:04:20.999Z,12.50
2018-05-18T04:07:00.401Z,12.30
2018-05-18T04:09:26.817Z,12.20
2018-05-18T04:11:53.530Z,12.10
2018-05-18T04:14:20.092Z,12.10
2018-05-18T04:16:46.435Z,12.10
2018-05-18T04:19:13.550Z,12.20
2018-05-18T04:21:40.009Z,12.20
2018-05-18T04:24:06.342Z,12.30
2018-05-18T04:26:32.715Z,12.30
2018-05-18T04:28:59.064Z,12.20
2018-05-18T04:31:25.491Z,12.10
2018-05-18T04:33:51.841Z,12.10
2018-05-18T04:36:18.249Z,12.10
2018-05-18T04:38:44.617Z,12.30
2018-05-18T04:41:11.986Z,11.80
2018-05-18T04:43:38.326Z,11.80
2018-05-18T04:46:05.446Z,11.90
2018-05-18T04:48:31.810Z,11.90
2018-05-18T04:50:58.211Z,12.00
2018-05-18T04:53:24.635Z,12.10
2018-05-18T04:55:51.187Z,12.30
2018-05-18T04:58:17.541Z,12.10
2018-05-18T05:00:44.700Z,12.10
2018-05-18T05:03:11.067Z,12.00
2018-05-18T05:05:37.476Z,12.10
2018-05-18T05:08:03.817Z,12.30
2018-05-18T05:10:30.221Z,12.50
2018-05-18T05:12:57.317Z,12.20
2018-05-18T05:15:23.720Z,12.20
2018-05-18T05:17:50.146Z,12.10
2018-05-18T05:20:16.553Z,12.30
2018-05-18T05:22:43.688Z,12.40
2018-05-18T05:25:10.865Z,12.30
2018-05-18T05:27:37.978Z,12.40
2018-05-18T05:30:04.387Z,12.30
2018-05-18T05:32:30.780Z,12.20
2018-05-18T05:34:57.910Z,12.20
2018-05-18T05:37:24.275Z,12.20
2018-05-18T05:39:50.635Z,12.30
2018-05-18T05:42:17.034Z,12.30
2018-05-18T05:44:43.407Z,12.10
2018-05-18T05:47:09.822Z,12.10
2018-05-18T05:49:36.191Z,12.20
2018-05-18T05:52:02.613Z,12.30
2018-05-18T05:54:28.981Z,12.30
2018-05-18T05:56:56.145Z,12.50
2018-05-18T05:59:23.039Z,12.50
2018-05-18T06:01:49.428Z,12.70
2018-05-18T06:04:15.776Z,12.60
2018-05-18T06:06:42.182Z,12.50
2018-05-18T06:09:08.674Z,12.60
2018-05-18T06:11:35.206Z,12.50
2018-05-18T06:14:01.586Z,12.50
2018-05-18T06:16:27.956Z,12.60
2018-05-18T06:18:54.377Z,12.70
2018-05-18T06:21:20.749Z,12.30
2018-05-18T06:23:47.128Z,12.30
2018-05-18T06:26:13.509Z,12.30
2018-05-18T06:28:40.675Z,12.50
2018-05-18T06:31:07.019Z,12.50
2018-05-18T06:33:33.384Z,12.60
2018-05-18T06:35:59.761Z,12.60
2018-05-18T06:38:26.175Z,12.60
2018-05-18T06:40:52.602Z,12.70
2018-05-18T06:43:19.009Z,12.60
2018-05-18T06:45:45.364Z,12.60
2018-05-18T06:48:11.790Z,12.50
2018-05-18T06:50:38.166Z,12.50
2018-05-18T06:53:04.536Z,12.70
2018-05-18T06:55:30.870Z,12.70
2018-05-18T06:57:57.265Z,12.70
2018-05-18T07:00:25.340Z,12.90
2018-05-18T07:02:51.929Z,12.80
2018-05-18T07:05:18.349Z,12.80
2018-05-18T07:07:44.736Z,12.80
2018-05-18T07:10:11.729Z,12.60
2018-05-18T07:12:38.098Z,12.70
2018-05-18T07:15:05.175Z,12.90
2018-05-18T07:17:31.533Z,12.90
2018-05-18T07:19:57.880Z,13.10
2018-05-18T07:22:24.399Z,13.10
2018-05-18T07:24:50.767Z,12.90
2018-05-18T07:27:17.848Z,12.50
2018-05-18T07:29:44.192Z,12.50
2018-05-18T07:32:10.585Z,12.90
2018-05-18T07:34:36.944Z,12.80
2018-05-18T07:37:03.306Z,12.90
2018-05-18T07:39:29.734Z,12.80
2018-05-18T07:41:56.095Z,13.00
2018-05-18T07:44:22.502Z,13.10
2018-05-18T07:46:48.834Z,13.10
2018-05-18T07:49:22.117Z,13.10
2018-05-18T07:51:48.470Z,13.00
2018-05-18T07:54:15.587Z,13.10
2018-05-18T07:56:41.930Z,13.10
2018-05-18T07:59:08.261Z,13.20
2018-05-18T08:01:34.796Z,13.20
2018-05-18T08:04:01.301Z,13.20
2018-05-18T08:06:27.654Z,13.30
2018-05-18T08:08:54.002Z,13.40
2018-05-18T08:11:21.110Z,13.50
2018-05-18T08:13:47.472Z,13.50
2018-05-18T08:16:13.841Z,13.60
2018-05-18T08:18:40.184Z,13.80
2018-05-18T08:21:06.537Z,13.60
2018-05-18T08:23:39.038Z,13.70
2018-05-18T08:26:05.439Z,13.80
2018-05-18T08:28:44.097Z,13.90
2018-05-18T08:31:10.526Z,14.10
2018-05-18T08:33:37.620Z,13.70
2018-05-18T08:36:07.602Z,13.70
2018-05-18T08:38:33.964Z,13.60
2018-05-18T08:41:00.323Z,13.70
2018-05-18T08:43:26.673Z,13.70
2018-05-18T08:45:53.019Z,14.00
2018-05-18T08:48:19.393Z,14.20
2018-05-18T08:50:45.735Z,14.40
2018-05-18T08:53:12.089Z,14.40
2018-05-18T08:55:38.481Z,14.40
2018-05-18T08:58:04.902Z,14.20
2018-05-18T09:00:31.963Z,14.40
2018-05-18T09:02:58.322Z,14.40
2018-05-18T09:05:24.674Z,14.30
2018-05-18T09:07:51.284Z,14.40
2018-05-18T09:10:17.601Z,14.30
2018-05-18T09:12:43.967Z,14.30
2018-05-18T09:15:10.325Z,14.40
2018-05-18T09:17:37.451Z,14.80
2018-05-18T09:20:03.789Z,14.70
2018-05-18T09:22:30.134Z,14.80
2018-05-18T09:24:56.501Z,15.10
2018-05-18T09:27:22.920Z,14.90
2018-05-18T09:29:49.281Z,15.10
2018-05-18T09:32:15.639Z,15.10
2018-05-18T09:34:41.984Z,15.10
2018-05-18T09:37:08.295Z,15.20
2018-05-18T09:39:34.639Z,15.00
2018-05-18T09:42:00.993Z,15.00
2018-05-18T09:44:28.091Z,14.90
2018-05-18T09:46:54.440Z,14.90
2018-05-18T09:49:20.798Z,14.80
2018-05-18T09:51:47.139Z,14.60
2018-05-18T09:54:13.582Z,14.80
2018-05-18T09:56:40.605Z,14.70
2018-05-18T09:59:07.858Z,14.90
2018-05-18T10:01:34.144Z,14.80
2018-05-18T10:04:00.497Z,15.00
2018-05-18T10:06:26.839Z,15.10
2018-05-18T10:08:53.939Z,15.10
2018-05-18T10:11:20.279Z,15.00
2018-05-18T10:13:46.606Z,15.10
2018-05-18T10:16:12.995Z,15.30
2018-05-18T10:18:40.248Z,15.40
2018-05-18T10:21:06.522Z,15.40
2018-05-18T10:23:33.088Z,15.40
2018-05-18T10:25:59.487Z,15.30
2018-05-18T10:28:25.836Z,15.40
2018-05-18T10:30:52.206Z,15.50
2018-05-18T10:33:19.245Z,15.40
2018-05-18T10:35:45.619Z,15.30
2018-05-18T10:38:11.942Z,15.40
2018-05-18T10:40:38.336Z,15.20
2018-05-18T10:43:05.449Z,15.50
2018-05-18T10:45:31.823Z,15.40
2018-05-18T10:47:58.148Z,15.50
2018-05-18T10:50:25.262Z,15.70
2018-05-18T10:52:51.613Z,15.60
2018-05-18T10:55:17.984Z,15.80
2018-05-18T10:57:44.317Z,15.80
2018-05-18T11:00:10.831Z,15.70
2018-05-18T11:02:37.185Z,15.60
2018-05-18T11:05:03.589Z,15.70
2018-05-18T11:07:30.665Z,15.90
2018-05-18T11:09:57.051Z,15.80
2018-05-18T11:12:23.365Z,15.80
2018-05-18T11:14:50.470Z,15.60
2018-05-18T11:17:16.806Z,15.50
2018-05-18T11:19:43.188Z,15.70
2018-05-18T11:22:10.292Z,16.00
2018-05-18T11:24:36.633Z,16.00
2018-05-18T11:27:04.531Z,16.20
2018-05-18T11:29:30.871Z,16.20
2018-05-18T11:31:58.701Z,16.00
2018-05-18T11:34:25.045Z,15.90
2018-05-18T11:36:51.393Z,15.90
2018-05-18T11:39:18.461Z,15.90
2018-05-18T11:41:44.896Z,15.90
2018-05-18T11:44:11.216Z,15.90
2018-05-18T11:46:37.588Z,15.80
2018-05-18T11:49:03.946Z,15.80
2018-05-18T11:51:30.297Z,15.80
2018-05-18T11:53:56.614Z,15.90
2018-05-18T11:56:23.754Z,15.50
2018-05-18T11:58:50.850Z,15.70
2018-05-18T12:01:17.193Z,15.60
2018-05-18T12:03:43.557Z,15.40
2018-05-18T12:06:09.909Z,15.50
2018-05-18T12:08:37.083Z,15.20
2018-05-18T12:11:03.397Z,15.20
2018-05-18T12:13:29.767Z,15.30
2018-05-18T12:15:56.162Z,15.40
2018-05-18T12:18:22.521Z,15.30
2018-05-18T12:20:48.840Z,15.40
2018-05-18T12:23:15.186Z,15.20
2018-05-18T12:25:41.525Z,15.30
2018-05-18T12:28:07.870Z,15.20
2018-05-18T12:30:34.448Z,15.10
2018-05-18T12:33:02.161Z,14.90
2018-05-18T12:35:28.531Z,14.80
2018-05-18T12:37:54.960Z,15.10
2018-05-18T12:40:21.367Z,15.30
2018-05-18T12:42:49.221Z,15.20
2018-05-18T12:45:15.554Z,15.20
2018-05-18T12:47:41.917Z,15.10
2018-05-18T12:50:08.250Z,15.00
2018-05-18T12:52:34.607Z,14.90
2018-05-18T12:55:01.103Z,15.00
2018-05-18T12:57:27.458Z,14.90
2018-05-18T12:59:54.509Z,15.20
2018-05-18T13:02:21.609Z,15.20
2018-05-18T13:04:47.970Z,15.20
2018-05-18T13:07:14.315Z,15.30
2018-05-18T13:09:41.380Z,15.50
2018-05-18T13:12:08.463Z,15.30
2018-05-18T13:14:34.799Z,15.30
2018-05-18T13:17:01.146Z,15.20
2018-05-18T13:19:28.290Z,15.50
2018-05-18T13:21:54.743Z,15.40
2018-05-18T13:24:21.840Z,15.50
2018-05-18T13:26:48.199Z,15.40
2018-05-18T13:29:14.635Z,15.60
2018-05-18T13:31:40.985Z,15.60
2018-05-18T13:34:08.111Z,15.50
2018-05-18T13:36:34.477Z,15.40
2018-05-18T13:39:00.850Z,15.10
2018-05-18T13:41:27.210Z,15.30
2018-05-18T13:43:53.557Z,15.40
2018-05-18T13:46:19.887Z,15.50
2018-05-18T13:48:46.248Z,15.50
2018-05-18T13:51:12.584Z,15.50
2018-05-18T13:53:38.928Z,15.70
2018-05-18T13:56:05.313Z,15.70
2018-05-18T13:58:32.492Z,15.80
2018-05-18T14:00:58.825Z,15.80
2018-05-18T14:03:25.211Z,15.50
2018-05-18T14:05:51.528Z,15.30
2018-05-18T14:08:17.895Z,15.30
2018-05-18T14:10:45.000Z,15.50
2018-05-18T14:13:11.359Z,15.40
2018-05-18T14:15:37.699Z,15.50
2018-05-18T14:18:06.413Z,15.40
2018-05-18T14:20:33.275Z,15.30
2018-05-18T14:22:59.653Z,15.50
2018-05-18T14:25:27.317Z,15.60
2018-05-18T14:27:53.856Z,15.50
2018-05-18T14:30:20.929Z,15.50
2018-05-18T14:32:47.300Z,15.50
2018-05-18T14:35:13.647Z,15.70
2018-05-18T14:37:40.012Z,15.80
2018-05-18T14:40:07.113Z,15.70
2018-05-18T14:42:33.475Z,15.70
2018-05-18T14:44:59.861Z,15.40
2018-05-18T14:47:26.211Z,15.50
2018-05-18T14:49:52.582Z,15.50
2018-05-18T14:52:18.913Z,15.80
2018-05-18T14:54:45.319Z,15.90
2018-05-18T14:57:12.448Z,15.90
2018-05-18T14:59:38.784Z,15.90
2018-05-18T15:02:05.162Z,15.80
2018-05-18T15:04:31.552Z,15.80
2018-05-18T15:06:57.877Z,15.80
2018-05-18T15:09:24.241Z,15.90
2018-05-18T15:11:51.299Z,15.90
2018-05-18T15:14:17.886Z,15.80
2018-05-18T15:16:45.610Z,15.90
2018-05-18T15:19:11.971Z,15.80
2018-05-18T15:21:38.314Z,16.00
2018-05-18T15:24:04.711Z,16.10
2018-05-18T15:26:31.048Z,16.10
2018-05-18T15:28:57.414Z,16.10
2018-05-18T15:31:23.801Z,16.10
2018-05-18T15:33:50.170Z,15.90
2018-05-18T15:36:16.501Z,15.90
2018-05-18T15:38:42.927Z,16.00
2018-05-18T15:41:09.269Z,16.00
2018-05-18T15:43:35.631Z,15.80
2018-05-18T15:46:02.022Z,15.80
2018-05-18T15:48:28.363Z,15.80
2018-05-18T15:50:54.708Z,15.80
2018-05-18T15:53:21.076Z,15.70
2018-05-18T15:55:47.437Z,15.70
2018-05-18T15:58:13.759Z,15.70
2018-05-18T16:00:40.122Z,15.70
2018-05-18T16:03:06.443Z,15.70
2018-05-18T16:05:34.276Z,15.60
2018-05-18T16:08:00.595Z,15.60
2018-05-18T16:10:27.062Z,15.50
2018-05-18T16:12:53.481Z,15.50
2018-05-18T16:15:20.643Z,15.40
2018-05-18T16:17:46.966Z,15.30
2018-05-18T16:20:13.402Z,15.50
2018-05-18T16:22:39.725Z,15.70
2018-05-18T16:25:06.112Z,15.60
2018-05-18T16:27:35.429Z,15.60
2018-05-18T16:30:01.776Z,15.50
2018-05-18T16:32:28.129Z,15.70
2018-05-18T16:34:56.015Z,15.40
2018-05-18T16:37:22.379Z,15.40
2018-05-18T16:39:48.749Z,15.30
2018-05-18T16:42:15.108Z,15.60
2018-05-18T16:44:41.483Z,15.70
2018-05-18T16:47:07.833Z,15.80
2018-05-18T16:49:34.170Z,15.70
2018-05-18T16:52:00.555Z,15.70
2018-05-18T16:54:27.655Z,15.60
2018-05-18T16:56:54.029Z,15.50
2018-05-18T16:59:20.350Z,15.70
2018-05-18T17:01:46.851Z,15.40
2018-05-18T17:04:13.185Z,15.50
2018-05-18T17:06:39.647Z,15.50
2018-05-18T17:09:05.933Z,15.50
2018-05-18T17:11:32.304Z,15.60
2018-05-18T17:13:59.367Z,15.40
2018-05-18T17:16:25.770Z,15.40
2018-05-18T17:18:52.501Z,15.40
2018-05-18T17:21:18.814Z,15.50
2018-05-18T17:23:45.103Z,15.50
2018-05-18T17:26:11.455Z,15.50
2018-05-18T17:28:37.744Z,15.30
2018-05-18T17:31:04.093Z,15.30
2018-05-18T17:33:30.442Z,15.10
2018-05-18T17:35:56.812Z,15.00
2018-05-18T17:38:23.105Z,14.90
2018-05-18T17:40:50.217Z,14.80
2018-05-18T17:43:16.514Z,14.80
2018-05-18T17:45:42.868Z,15.00
2018-05-18T17:48:09.156Z,14.70
2018-05-18T17:50:35.471Z,14.70
2018-05-18T17:53:02.506Z,14.90
2018-05-18T17:55:28.887Z,14.80
2018-05-18T17:57:55.228Z,14.80
2018-05-18T18:00:21.629Z,14.80
2018-05-18T18:02:47.968Z,14.70
2018-05-18T18:05:14.270Z,14.60
2018-05-18T18:07:40.629Z,14.50
2018-05-18T18:10:06.950Z,14.60
2018-05-18T18:12:33.311Z,14.50
2018-05-18T18:14:59.601Z,14.50
2018-05-18T18:17:25.963Z,14.40
2018-05-18T18:19:52.822Z,14.40
2018-05-18T18:22:19.130Z,14.30
2018-05-18T18:24:45.507Z,14.40
2018-05-18T18:27:13.287Z,14.50
2018-05-18T18:29:40.321Z,14.60
2018-05-18T18:32:06.657Z,14.60
2018-05-18T18:34:33.702Z,14.40
2018-05-18T18:37:00.774Z,14.30
2018-05-18T18:39:27.402Z,14.30
2018-05-18T18:41:54.530Z,14.50
2018-05-18T18:44:20.830Z,14.40
2018-05-18T18:46:47.166Z,14.60
2018-05-18T18:49:13.476Z,14.40
2018-05-18T18:51:39.814Z,14.30
2018-05-18T18:54:06.137Z,14.20
2018-05-18T18:56:32.482Z,14.10
2018-05-18T18:58:58.796Z,14.10
2018-05-18T19:01:25.142Z,14.30
2018-05-18T19:03:51.493Z,14.30
2018-05-18T19:06:17.828Z,14.20
2018-05-18T19:08:45.025Z,14.20
2018-05-18T19:11:11.371Z,14.10
2018-05-18T19:13:37.787Z,14.20
2018-05-18T19:16:04.151Z,14.20
2018-05-18T19:18:30.445Z,14.30
2018-05-18T19:20:56.784Z,14.10
2018-05-18T19:23:23.089Z,14.10
2018-05-18T19:25:50.089Z,13.90
2018-05-18T19:28:17.175Z,14.10
2018-05-18T19:30:44.196Z,14.10
2018-05-18T19:33:10.518Z,14.10
2018-05-18T19:35:37.573Z,14.10
2018-05-18T19:38:03.930Z,14.10
2018-05-18T19:40:30.284Z,14.20
2018-05-18T19:42:56.594Z,14.10
2018-05-18T19:45:23.638Z,13.90
2018-05-18T19:47:50.504Z,13.80
2018-05-18T19:50:16.935Z,13.80
2018-05-18T19:52:43.261Z,13.80
2018-05-18T19:55:14.965Z,13.60
2018-05-18T19:57:41.293Z,13.60
2018-05-18T20:00:08.504Z,13.70
2018-05-18T20:02:34.941Z,13.70
2018-05-18T20:05:01.332Z,13.90
2018-05-18T20:07:28.417Z,13.90
2018-05-18T20:09:54.848Z,13.80
2018-05-18T20:12:21.285Z,13.80
2018-05-18T20:14:47.554Z,13.80
2018-05-18T20:17:13.916Z,13.70
2018-05-18T20:19:40.961Z,13.30
2018-05-18T20:22:07.479Z,13.30
2018-05-18T20:24:33.798Z,13.60
2018-05-18T20:27:00.493Z,13.70
2018-05-18T20:29:26.818Z,13.50
2018-05-18T20:31:53.153Z,13.70
2018-05-18T20:34:19.546Z,13.70
2018-05-18T20:36:45.795Z,13.70
2018-05-18T20:39:12.137Z,13.70
2018-05-18T20:41:39.431Z,13.70
2018-05-18T20:44:05.764Z,13.70
2018-05-18T20:46:32.065Z,13.70
2018-05-18T20:48:58.462Z,13.50
2018-05-18T20:51:24.981Z,13.40
2018-05-18T20:53:51.399Z,13.40
2018-05-18T20:56:18.498Z,13.50
2018-05-18T20:58:44.871Z,13.50
2018-05-18T21:01:11.506Z,13.60
2018-05-18T21:03:38.554Z,13.80
2018-05-18T21:06:05.657Z,13.60
2018-05-18T21:08:32.009Z,13.60
2018-05-18T21:10:59.140Z,13.70
2018-05-18T21:13:25.478Z,13.60
2018-05-18T21:15:51.809Z,13.60
2018-05-18T21:18:18.140Z,13.50
2018-05-18T21:20:44.429Z,13.60
2018-05-18T21:23:11.614Z,13.60
2018-05-18T21:25:38.157Z,13.50
2018-05-18T21:28:04.491Z,13.70
2018-05-18T21:30:31.136Z,13.60
2018-05-18T21:32:57.485Z,13.50
2018-05-18T21:35:23.850Z,13.50
2018-05-18T21:37:50.261Z,13.10
2018-05-18T21:40:16.598Z,13.10
2018-05-18T21:42:43.082Z,13.10
2018-05-18T21:45:09.429Z,13.20
2018-05-18T21:47:36.866Z,13.10
2018-05-18T21:50:03.165Z,13.10
2018-05-18T21:52:29.498Z,13.10
2018-05-18T21:54:55.908Z,13.20
2018-05-18T21:57:22.227Z,12.90
2018-05-18T21:59:48.561Z,13.10
2018-05-18T22:02:14.895Z,13.00
2018-05-18T22:04:41.261Z,13.10
2018-05-18T22:07:08.168Z,12.90
2018-05-18T22:09:34.825Z,12.90
2018-05-18T22:12:01.206Z,13.10
2018-05-18T22:14:27.534Z,13.20
2018-05-18T22:16:53.906Z,13.10
2018-05-18T22:19:20.271Z,13.30
2018-05-18T22:21:46.691Z,13.20
2018-05-18T22:24:13.060Z,13.20
2018-05-18T22:26:40.145Z,12.90
2018-05-18T22:29:07.339Z,12.70
2018-05-18T22:31:33.685Z,12.70
2018-05-18T22:34:00.055Z,12.90
2018-05-18T22:36:26.407Z,12.70
2018-05-18T22:38:52.792Z,12.60
2018-05-18T22:41:20.089Z,12.80
2018-05-18T22:43:46.446Z,12.80
2018-05-18T22:46:12.855Z,13.00
2018-05-18T22:48:39.935Z,12.90
2018-05-18T22:51:06.356Z,12.90
2018-05-18T22:53:32.699Z,12.90
2018-05-18T22:55:59.437Z,12.80
2018-05-18T22:58:26.651Z,12.60
2018-05-18T23:00:53.068Z,12.50
2018-05-18T23:03:19.457Z,12.70
2018-05-18T23:05:46.589Z,12.80
2018-05-18T23:08:13.074Z,12.80
2018-05-18T23:10:39.438Z,12.70
2018-05-18T23:13:05.790Z,12.80
2018-05-18T23:15:32.156Z,12.70
2018-05-18T23:17:58.515Z,12.70
2018-05-18T23:20:24.870Z,12.60
2018-05-18T23:22:51.269Z,12.70
2018-05-18T23:25:18.941Z,12.70
2018-05-18T23:27:45.275Z,12.80
2018-05-18T23:30:11.645Z,12.80
2018-05-18T23:32:38.766Z,12.90
2018-05-18T23:35:05.167Z,12.90
2018-05-18T23:37:31.503Z,12.90
2018-05-18T23:39:57.892Z,13.00
2018-05-18T23:42:26.292Z,12.80
2018-05-18T23:44:53.540Z,12.70
2018-05-18T23:47:19.928Z,12.70
2018-05-18T23:49:46.298Z,12.60
2018-05-18T23:52:12.666Z,12.60
2018-05-18T23:54:39.004Z,12.70
2018-05-18T23:57:05.350Z,12.80
2018-05-18T23:59:31.704Z,12.80
